Time;durP1;ratioP1;P1;durP2;ratioP2;P2;SDS_P1;SDS_P2;PMS_P1;PMS_P2;Temp;Humidity;BMP_temperature;BMP_pressure;BME280_temperature;BME280_humidity;BME280_pressure;Samples;Min_cycle;Max_cycle;Signal;HPM_P1;HPM_P2
2023/11/20 00:00:32;;;;;;;;;;;;;;;2.47;84.41;100374.49;106611;1257;61360;-79
2023/11/20 00:03:19;;;;;;;;;;;;;;;2.48;84.35;100376.29;106454;1260;124807;-79
2023/11/20 00:05:45;;;;;;;;;;;;;;;2.49;84.38;100375.27;106602;1260;74687;-79
2023/11/20 00:08:12;;;;;;;;;;;;;;;2.49;84.26;100370.28;106593;1261;64985;-79
2023/11/20 00:10:39;;;;;;;;;;;;;;;2.50;84.22;100369.80;106455;1260;126039;-80
2023/11/20 00:13:06;;;;;;;;;;;;;;;2.52;84.43;100376.16;106617;1257;61381;-80
2023/11/20 00:15:34;;;;;;;;;;;;;;;2.55;84.36;100382.70;106453;1260;125394;-80
2023/11/20 00:18:00;;;;;;;;;;;;;;;2.57;84.34;100381.74;106548;1258;76101;-80
2023/11/20 00:20:27;;;;;;;;;;;;;;;2.55;84.31;100379.05;106461;1255;124708;-80
2023/11/20 00:22:53;;;;;;;;;;;;;;;2.56;84.33;100377.38;106466;1257;71352;-80
2023/11/20 00:25:20;;;;;;;;;;;;;;;2.57;84.26;100374.83;106412;1264;61249;-79
2023/11/20 00:27:46;;;;;;;;;;;;;;;2.54;84.16;100374.17;106473;1258;124131;-79
2023/11/20 00:30:13;;;;;;;;;;;;;;;2.52;84.35;100376.83;106522;1256;74641;-79
2023/11/20 00:32:40;;;;;;;;;;;;;;;2.51;84.31;100377.99;106453;1260;124255;-80
2023/11/20 00:35:07;;;;;;;;;;;;;;;2.52;84.45;100376.67;106562;1259;71402;-80
2023/11/20 00:37:34;;;;;;;;;;;;;;;2.52;84.39;100377.35;106661;1257;59783;-80
2023/11/20 00:40:01;;;;;;;;;;;;;;;2.50;84.38;100380.39;106431;1258;123996;-80
2023/11/20 00:42:27;;;;;;;;;;;;;;;2.47;84.32;100380.06;106557;1260;74668;-81
2023/11/20 00:44:54;;;;;;;;;;;;;;;2.45;84.37;100380.64;106581;1258;124048;-81
2023/11/20 00:47:21;;;;;;;;;;;;;;;2.45;84.22;100377.33;106490;1260;71696;-80
2023/11/20 00:49:48;;;;;;;;;;;;;;;2.44;84.49;100379.19;106648;1257;61189;-80
2023/11/20 00:52:14;;;;;;;;;;;;;;;2.43;84.54;100384.85;106436;1257;123803;-79
2023/11/20 00:54:41;;;;;;;;;;;;;;;2.41;84.40;100381.83;106518;1258;74673;-79
2023/11/20 00:57:08;;;;;;;;;;;;;;;2.40;84.36;100388.00;106586;1257;123818;-79
2023/11/20 00:59:34;;;;;;;;;;;;;;;2.39;84.45;100385.31;106505;1259;71498;-79
2023/11/20 01:02:01;;;;;;;;;;;;;;;2.37;84.47;100382.44;106602;1255;61361;-80
2023/11/20 01:04:28;;;;;;;;;;;;;;;2.34;84.55;100382.31;106326;1262;124053;-81
2023/11/20 01:06:54;;;;;;;;;;;;;;;2.34;84.50;100380.40;106506;1257;73360;-80
2023/11/20 01:09:21;;;;;;;;;;;;;;;2.31;84.63;100378.54;106460;1256;124069;-80
2023/11/20 01:11:48;;;;;;;;;;;;;;;2.30;84.65;100373.11;106477;1260;70424;-80
2023/11/20 01:14:14;;;;;;;;;;;;;;;2.28;84.50;100373.33;106565;1258;61208;-80
2023/11/20 01:16:41;;;;;;;;;;;;;;;2.25;84.68;100371.11;106526;1258;124226;-80
2023/11/20 01:19:07;;;;;;;;;;;;;;;2.26;84.76;100378.95;106658;1255;74476;-80
2023/11/20 01:21:34;;;;;;;;;;;;;;;2.26;84.88;100382.08;106440;1260;124576;-80
2023/11/20 01:24:01;;;;;;;;;;;;;;;2.27;84.86;100386.29;106550;1269;71669;-80
2023/11/20 01:26:27;;;;;;;;;;;;;;;2.30;84.95;100387.48;106388;1258;124862;-80
2023/11/20 01:28:54;;;;;;;;;;;;;;;2.33;84.96;100388.99;106534;1260;61273;-80
2023/11/20 01:31:21;;;;;;;;;;;;;;;2.36;84.93;100388.61;106652;1258;75024;-79
2023/11/20 01:33:47;;;;;;;;;;;;;;;2.37;84.95;100388.34;106407;1257;125152;-78
2023/11/20 01:36:16;;;;;;;;;;;;;;;2.38;85.08;100384.42;106477;1257;72446;-79
2023/11/20 01:38:43;;;;;;;;;;;;;;;2.40;85.17;100386.92;106544;1255;124691;-79
2023/11/20 01:41:09;;;;;;;;;;;;;;;2.39;85.07;100387.94;106635;1255;61244;-78
2023/11/20 01:43:36;;;;;;;;;;;;;;;2.40;84.97;100385.74;106630;1257;74799;-80
2023/11/20 01:46:07;;;;;;;;;;;;;;;2.41;84.89;100384.90;106514;1260;124671;-78
2023/11/20 01:48:33;;;;;;;;;;;;;;;2.39;84.87;100382.05;106525;1260;71143;-79
2023/11/20 01:51:00;;;;;;;;;;;;;;;2.38;84.88;100387.52;106467;1260;125143;-79
2023/11/20 01:53:27;;;;;;;;;;;;;;;2.38;85.09;100391.54;106555;1255;61244;-80
2023/11/20 01:55:54;;;;;;;;;;;;;;;2.40;84.93;100391.08;106719;1258;73391;-80
2023/11/20 01:58:21;;;;;;;;;;;;;;;2.38;85.10;100388.91;106462;1257;124505;-79
2023/11/20 02:00:48;;;;;;;;;;;;;;;2.38;85.03;100390.28;106441;1257;70389;-80
2023/11/20 02:03:14;;;;;;;;;;;;;;;2.38;85.04;100386.31;106472;1260;124944;-80
2023/11/20 02:05:41;;;;;;;;;;;;;;;2.39;85.20;100386.73;106623;1260;61190;-80
2023/11/20 02:08:07;;;;;;;;;;;;;;;2.44;85.16;100389.89;106831;1258;74710;-80
2023/11/20 02:10:34;;;;;;;;;;;;;;;2.45;85.24;100392.73;106544;1263;125047;-79
2023/11/20 02:13:02;;;;;;;;;;;;;;;2.45;85.12;100393.97;106554;1257;71413;-80
2023/11/20 02:15:28;;;;;;;;;;;;;;;2.49;85.22;100394.88;106526;1254;124430;-80
2023/11/20 02:17:55;;;;;;;;;;;;;;;2.52;85.16;100393.81;106577;1255;60150;-82
2023/11/20 02:20:24;;;;;;;;;;;;;;;2.54;85.07;100387.84;106520;1260;124587;-80
2023/11/20 02:22:51;;;;;;;;;;;;;;;2.54;85.13;100387.67;106667;1258;64166;-80
2023/11/20 02:25:18;;;;;;;;;;;;;;;2.51;85.08;100388.91;106624;1261;71402;-79
2023/11/20 02:27:44;;;;;;;;;;;;;;;2.49;85.03;100387.62;106443;1256;124451;-80
2023/11/20 02:30:11;;;;;;;;;;;;;;;2.51;85.14;100382.82;106667;1255;61404;-80
2023/11/20 02:32:37;;;;;;;;;;;;;;;2.50;85.05;100380.54;106514;1259;124784;-79
2023/11/20 02:35:04;;;;;;;;;;;;;;;2.49;85.11;100374.77;106596;1257;65523;-79
2023/11/20 02:37:33;;;;;;;;;;;;;;;2.49;85.01;100378.05;106511;1257;72588;-79
2023/11/20 02:39:59;;;;;;;;;;;;;;;2.47;85.12;100373.29;106482;1257;124606;-79
2023/11/20 02:42:26;;;;;;;;;;;;;;;2.47;85.20;100367.38;106461;1258;61135;-79
2023/11/20 02:44:52;;;;;;;;;;;;;;;2.48;85.24;100369.18;106456;1257;124724;-79
2023/11/20 02:47:22;;;;;;;;;;;;;;;2.49;85.33;100371.64;106679;1257;65156;-79
2023/11/20 02:49:48;;;;;;;;;;;;;;;2.48;85.22;100368.31;106531;1260;71277;-79
2023/11/20 02:52:16;;;;;;;;;;;;;;;2.46;85.22;100370.44;106362;1261;124610;-80
2023/11/20 02:54:44;;;;;;;;;;;;;;;2.46;85.44;100368.74;106518;1256;61188;-80
2023/11/20 02:57:11;;;;;;;;;;;;;;;2.48;85.37;100367.95;106395;1258;124618;-80
2023/11/20 02:59:37;;;;;;;;;;;;;;;2.48;85.40;100364.35;106397;1256;65052;-80
2023/11/20 03:02:05;;;;;;;;;;;;;;;2.50;85.53;100365.82;106666;1258;71804;-79
2023/11/20 03:04:32;;;;;;;;;;;;;;;2.49;85.38;100365.60;106418;1256;124520;-80
2023/11/20 03:06:58;;;;;;;;;;;;;;;2.52;85.55;100367.83;106630;1258;61225;-79
2023/11/20 03:09:25;;;;;;;;;;;;;;;2.55;85.66;100366.77;106624;1257;124680;-79
2023/11/20 03:11:51;;;;;;;;;;;;;;;2.57;85.66;100368.77;106642;1260;64995;-79
2023/11/20 03:14:18;;;;;;;;;;;;;;;2.56;85.53;100369.77;106576;1260;71415;-80
2023/11/20 03:16:45;;;;;;;;;;;;;;;2.56;85.40;100369.74;107407;1257;125265;-79
2023/11/20 03:19:14;;;;;;;;;;;;;;;2.56;85.48;100368.72;106596;1256;59501;-79
2023/11/20 03:21:41;;;;;;;;;;;;;;;2.56;85.39;100369.55;106386;1257;124597;-79
2023/11/20 03:24:08;;;;;;;;;;;;;;;2.56;85.63;100365.40;106541;1258;68335;-79
2023/11/20 03:26:34;;;;;;;;;;;;;;;2.58;85.61;100367.05;106492;1260;124704;-80
2023/11/20 03:29:01;;;;;;;;;;;;;;;2.59;85.74;100371.27;106674;1260;61266;-79
2023/11/20 03:31:35;;;;;;;;;;;;;;;2.61;85.83;100366.34;106528;1257;60970;-80
2023/11/20 03:34:03;;;;;;;;;;;;;;;2.64;85.77;100363.91;106420;1257;125058;-79
2023/11/20 03:36:30;;;;;;;;;;;;;;;2.66;85.78;100364.37;106639;1260;64807;-79
2023/11/20 03:38:57;;;;;;;;;;;;;;;2.65;85.64;100365.37;106426;1262;124825;-80
2023/11/20 03:41:24;;;;;;;;;;;;;;;2.64;85.71;100362.89;106591;1257;59260;-80
2023/11/20 03:43:50;;;;;;;;;;;;;;;2.65;85.74;100359.65;106525;1257;59269;-79
2023/11/20 03:46:17;;;;;;;;;;;;;;;2.67;85.74;100352.28;106553;1260;124486;-80
2023/11/20 03:48:43;;;;;;;;;;;;;;;2.67;85.79;100350.06;106681;1257;65327;-80
2023/11/20 03:51:10;;;;;;;;;;;;;;;2.68;85.79;100347.48;106584;1256;124445;-80
2023/11/20 03:53:36;;;;;;;;;;;;;;;2.69;85.83;100348.23;106639;1259;61251;-81
2023/11/20 03:56:03;;;;;;;;;;;;;;;2.71;85.89;100345.75;106517;1258;61268;-81
2023/11/20 03:58:30;;;;;;;;;;;;;;;2.71;85.80;100353.91;106342;1257;124684;-81
2023/11/20 04:00:56;;;;;;;;;;;;;;;2.72;85.79;100354.08;106523;1257;66264;-81
2023/11/20 04:03:23;;;;;;;;;;;;;;;2.71;85.79;100350.27;106513;1257;124395;-79
2023/11/20 04:05:50;;;;;;;;;;;;;;;2.71;85.87;100351.98;106459;1260;61346;-80
2023/11/20 04:08:16;;;;;;;;;;;;;;;2.72;85.90;100352.73;106589;1256;61169;-80
2023/11/20 04:10:43;;;;;;;;;;;;;;;2.74;85.94;100356.28;106377;1257;124481;-80
2023/11/20 04:13:10;;;;;;;;;;;;;;;2.75;85.84;100357.02;106427;1257;66347;-81
2023/11/20 04:15:37;;;;;;;;;;;;;;;2.72;85.97;100357.08;106367;1256;124372;-81
2023/11/20 04:18:03;;;;;;;;;;;;;;;2.71;85.78;100357.89;106481;1255;59367;-81
2023/11/20 04:20:30;;;;;;;;;;;;;;;2.72;85.91;100356.19;106441;1256;124855;-82
2023/11/20 04:22:57;;;;;;;;;;;;;;;2.73;85.96;100351.07;106631;1259;73616;-82
2023/11/20 04:25:23;;;;;;;;;;;;;;;2.73;85.96;100354.88;106713;1256;64756;-80
2023/11/20 04:27:52;;;;;;;;;;;;;;;2.73;86.00;100352.94;106363;1258;124648;-81
2023/11/20 04:30:19;;;;;;;;;;;;;;;2.75;85.99;100353.55;106573;1257;59756;-80
2023/11/20 04:32:46;;;;;;;;;;;;;;;2.77;86.10;100352.80;106377;1257;125122;-80
2023/11/20 04:35:13;;;;;;;;;;;;;;;2.77;86.06;100353.65;106620;1259;73600;-80
2023/11/20 04:37:39;;;;;;;;;;;;;;;2.74;85.84;100353.50;106708;1257;66029;-80
2023/11/20 04:40:07;;;;;;;;;;;;;;;2.74;86.05;100348.98;106487;1256;124544;-80
2023/11/20 04:42:34;;;;;;;;;;;;;;;2.76;86.13;100349.93;106717;1260;61247;-82
2023/11/20 04:45:01;;;;;;;;;;;;;;;2.75;86.10;100352.54;106449;1259;124590;-81
2023/11/20 04:47:28;;;;;;;;;;;;;;;2.76;86.12;100351.16;106680;1255;74479;-81
2023/11/20 04:49:54;;;;;;;;;;;;;;;2.76;86.13;100350.50;106652;1256;66409;-80
2023/11/20 04:52:21;;;;;;;;;;;;;;;2.78;86.15;100354.04;106587;1256;125132;-80
2023/11/20 04:54:47;;;;;;;;;;;;;;;2.78;86.17;100353.02;106651;1256;59180;-78
2023/11/20 04:57:15;;;;;;;;;;;;;;;2.79;86.10;100356.86;106473;1257;125682;-79
2023/11/20 04:59:41;;;;;;;;;;;;;;;2.78;86.18;100356.13;106668;1256;74393;-78
2023/11/20 05:02:08;;;;;;;;;;;;;;;2.76;86.11;100355.86;106667;1257;66265;-78
2023/11/20 05:04:35;;;;;;;;;;;;;;;2.77;86.18;100356.60;106476;1256;124410;-78
2023/11/20 05:07:02;;;;;;;;;;;;;;;2.77;86.09;100355.91;106593;1260;61217;-77
2023/11/20 05:09:29;;;;;;;;;;;;;;;2.78;86.14;100356.80;106563;1258;124363;-78
2023/11/20 05:11:57;;;;;;;;;;;;;;;2.80;86.29;100360.05;106624;1257;73908;-77
2023/11/20 05:14:24;;;;;;;;;;;;;;;2.81;86.15;100360.42;106571;1256;124561;-78
2023/11/20 05:16:50;;;;;;;;;;;;;;;2.81;86.30;100362.16;106578;1256;72747;-78
2023/11/20 05:19:17;;;;;;;;;;;;;;;2.82;86.06;100365.52;106536;1256;61164;-77
2023/11/20 05:21:45;;;;;;;;;;;;;;;2.82;86.22;100363.79;106400;1260;124675;-78
2023/11/20 05:24:12;;;;;;;;;;;;;;;2.83;86.18;100367.27;106577;1259;74449;-78
2023/11/20 05:26:39;;;;;;;;;;;;;;;2.84;86.41;100369.42;106395;1257;124745;-80
2023/11/20 05:29:06;;;;;;;;;;;;;;;2.85;86.21;100370.54;106492;1256;72214;-80
2023/11/20 05:31:32;;;;;;;;;;;;;;;2.87;86.36;100368.52;106496;1255;59337;-80
2023/11/20 05:34:00;;;;;;;;;;;;;;;2.88;86.26;100369.11;106595;1256;124534;-89
2023/11/20 05:36:27;;;;;;;;;;;;;;;2.90;86.31;100369.39;106555;1256;73042;-85
2023/11/20 05:38:53;;;;;;;;;;;;;;;2.90;86.32;100371.30;106600;1257;125003;-90
2023/11/20 05:41:20;;;;;;;;;;;;;;;2.91;86.35;100374.98;106657;1255;72839;-87
2023/11/20 05:43:47;;;;;;;;;;;;;;;2.92;86.23;100375.21;106692;1256;59393;-86
2023/11/20 05:46:13;;;;;;;;;;;;;;;2.93;86.27;100378.69;106407;1257;123449;-86
2023/11/20 05:48:40;;;;;;;;;;;;;;;2.92;86.24;100380.22;106656;1254;74711;-86
2023/11/20 05:51:07;;;;;;;;;;;;;;;2.91;86.23;100382.11;106575;1256;124511;-87
2023/11/20 05:53:33;;;;;;;;;;;;;;;2.91;86.26;100383.84;106496;1257;71437;-89
2023/11/20 05:56:00;;;;;;;;;;;;;;;2.92;86.37;100387.33;106562;1256;59279;-84
2023/11/20 05:58:27;;;;;;;;;;;;;;;2.92;86.34;100386.80;106680;1257;124404;-87
2023/11/20 06:00:53;;;;;;;;;;;;;;;2.92;86.41;100388.23;106631;1257;73015;-82
2023/11/20 06:03:20;;;;;;;;;;;;;;;2.91;86.35;100386.42;106593;1256;125116;-82
2023/11/20 06:05:47;;;;;;;;;;;;;;;2.90;86.35;100391.04;106835;1260;72636;-83
2023/11/20 06:08:13;;;;;;;;;;;;;;;2.89;86.53;100392.07;106875;1257;61511;-82
2023/11/20 06:10:40;;;;;;;;;;;;;;;2.92;86.46;100395.11;106566;1260;124608;-85
2023/11/20 06:13:07;;;;;;;;;;;;;;;2.92;86.44;100396.20;107000;1256;74743;-82
2023/11/20 06:15:34;;;;;;;;;;;;;;;2.94;86.51;100396.25;106798;1256;124706;-82
2023/11/20 06:18:00;;;;;;;;;;;;;;;2.94;86.46;100396.60;106889;1256;72706;-79
2023/11/20 06:20:27;;;;;;;;;;;;;;;2.94;86.54;100399.36;106734;1256;124734;-82
2023/11/20 06:22:53;;;;;;;;;;;;;;;2.97;86.48;100402.63;107112;1256;61247;-80
2023/11/20 06:25:20;;;;;;;;;;;;;;;2.97;86.46;100403.34;107180;1256;74764;-80
2023/11/20 06:27:47;;;;;;;;;;;;;;;2.97;86.53;100404.35;106976;1257;124532;-80
2023/11/20 06:30:14;;;;;;;;;;;;;;;2.99;86.58;100407.41;107077;1256;72743;-80
2023/11/20 06:32:40;;;;;;;;;;;;;;;3.00;86.63;100411.66;107291;1257;124646;-80
2023/11/20 06:35:07;;;;;;;;;;;;;;;3.00;86.45;100414.08;107256;1256;61161;-78
2023/11/20 06:37:34;;;;;;;;;;;;;;;3.00;86.50;100419.95;106836;1256;74617;-79
2023/11/20 06:40:01;;;;;;;;;;;;;;;2.99;86.50;100415.91;106715;1259;124981;-79
2023/11/20 06:42:27;;;;;;;;;;;;;;;2.96;86.43;100420.96;106739;1256;73313;-80
2023/11/20 06:44:54;;;;;;;;;;;;;;;2.93;86.51;100414.91;106786;1257;124723;-80
2023/11/20 06:47:21;;;;;;;;;;;;;;;2.94;86.54;100414.63;106860;1257;61326;-81
2023/11/20 06:49:48;;;;;;;;;;;;;;;2.97;86.71;100414.44;106948;1256;74639;-80
2023/11/20 06:52:15;;;;;;;;;;;;;;;2.98;86.59;100415.69;106809;1256;125027;-80
2023/11/20 06:54:42;;;;;;;;;;;;;;;2.98;86.52;100421.08;106845;1256;71869;-81
2023/11/20 06:57:10;;;;;;;;;;;;;;;2.96;86.65;100420.98;106709;1256;124838;-81
2023/11/20 06:59:37;;;;;;;;;;;;;;;2.98;86.61;100422.95;106841;1258;61219;-80
2023/11/20 07:02:03;;;;;;;;;;;;;;;2.97;86.55;100423.94;105844;1256;74604;-80
2023/11/20 07:04:36;;;;;;;;;;;;;;;2.96;86.66;100430.68;106580;1255;124391;-80
2023/11/20 07:07:03;;;;;;;;;;;;;;;2.97;86.63;100438.88;106998;1256;72730;-80
2023/11/20 07:09:30;;;;;;;;;;;;;;;2.99;86.74;100446.44;106869;1257;124904;-80
2023/11/20 07:11:57;;;;;;;;;;;;;;;2.99;86.68;100447.66;107022;1257;61359;-79
2023/11/20 07:14:24;;;;;;;;;;;;;;;3.01;86.74;100448.23;106687;1254;125185;-80
2023/11/20 07:16:51;;;;;;;;;;;;;;;3.02;86.64;100449.50;106655;1257;64891;-80
2023/11/20 07:19:18;;;;;;;;;;;;;;;3.04;86.64;100452.59;106427;1256;71814;-80
2023/11/20 07:21:44;;;;;;;;;;;;;;;3.05;86.71;100453.81;106347;1256;124771;-79
2023/11/20 07:24:11;;;;;;;;;;;;;;;3.06;86.71;100460.80;106662;1256;60071;-79
2023/11/20 07:26:38;;;;;;;;;;;;;;;3.08;86.66;100464.58;106444;1259;124868;-79
2023/11/20 07:29:05;;;;;;;;;;;;;;;3.10;86.67;100467.45;106478;1256;66254;-79
2023/11/20 07:31:32;;;;;;;;;;;;;;;3.08;86.50;100463.70;106545;1256;70821;-79
2023/11/20 07:34:00;;;;;;;;;;;;;;;3.06;86.53;100461.52;106399;1256;126116;-79
2023/11/20 07:36:27;;;;;;;;;;;;;;;3.06;86.53;100463.59;106645;1256;61208;-79
2023/11/20 07:38:53;;;;;;;;;;;;;;;3.08;86.68;100464.23;106338;1260;125314;-81
2023/11/20 07:41:20;;;;;;;;;;;;;;;3.09;86.53;100464.63;106588;1259;66261;-79
2023/11/20 07:43:46;;;;;;;;;;;;;;;3.09;86.68;100465.84;106610;1259;73034;-79
2023/11/20 07:46:13;;;;;;;;;;;;;;;3.11;86.64;100464.89;106490;1258;124777;-79
2023/11/20 07:48:40;;;;;;;;;;;;;;;3.14;86.66;100465.90;106536;1256;61189;-79
2023/11/20 07:51:07;;;;;;;;;;;;;;;3.11;86.47;100470.80;106279;1257;124607;-79
2023/11/20 07:53:33;;;;;;;;;;;;;;;3.10;86.44;100474.20;106563;1256;66028;-80
2023/11/20 07:56:00;;;;;;;;;;;;;;;3.10;86.60;100475.42;106243;1256;73584;-80
2023/11/20 07:58:26;;;;;;;;;;;;;;;3.12;86.53;100478.98;106414;1259;124886;-80
2023/11/20 08:00:53;;;;;;;;;;;;;;;3.13;86.65;100480.94;106607;1256;61319;-80
2023/11/20 08:03:20;;;;;;;;;;;;;;;3.14;86.67;100483.23;106369;1256;125229;-80
2023/11/20 08:05:47;;;;;;;;;;;;;;;3.16;86.82;100484.04;106716;1258;66775;-80
2023/11/20 08:08:14;;;;;;;;;;;;;;;3.17;86.73;100482.00;106612;1257;72895;-80
2023/11/20 08:10:41;;;;;;;;;;;;;;;3.18;86.56;100483.61;106480;1257;124194;-80
2023/11/20 08:13:07;;;;;;;;;;;;;;;3.18;86.57;100482.75;106659;1256;61348;-80
2023/11/20 08:15:34;;;;;;;;;;;;;;;3.23;86.76;100487.35;106506;1256;124628;-80
2023/11/20 08:18:01;;;;;;;;;;;;;;;3.26;86.81;100481.59;106594;1254;64483;-80
2023/11/20 08:20:29;;;;;;;;;;;;;;;3.26;86.62;100480.58;106486;1256;124663;-80
2023/11/20 08:22:56;;;;;;;;;;;;;;;3.30;86.77;100482.30;106563;1256;61379;-80
2023/11/20 08:25:24;;;;;;;;;;;;;;;3.33;86.70;100484.02;106593;1256;59758;-80
2023/11/20 08:27:50;;;;;;;;;;;;;;;3.34;86.68;100490.30;106493;1256;124472;-79
2023/11/20 08:30:17;;;;;;;;;;;;;;;3.36;86.63;100493.38;106585;1259;65080;-79
2023/11/20 08:32:44;;;;;;;;;;;;;;;3.38;86.70;100494.17;106502;1256;124758;-80
2023/11/20 08:35:11;;;;;;;;;;;;;;;3.38;86.71;100493.28;106357;1256;61439;-80
2023/11/20 08:37:38;;;;;;;;;;;;;;;3.38;86.65;100492.06;106454;1257;61158;-80
2023/11/20 08:40:08;;;;;;;;;;;;;;;3.39;86.74;100494.55;106317;1256;124709;-79
2023/11/20 08:42:35;;;;;;;;;;;;;;;3.38;86.45;100493.44;106508;1257;63814;-80
2023/11/20 08:45:04;;;;;;;;;;;;;;;3.36;86.50;100495.08;106358;1256;125014;-80
2023/11/20 08:47:31;;;;;;;;;;;;;;;3.36;86.70;100498.04;106642;1259;61372;-80
2023/11/20 08:49:57;;;;;;;;;;;;;;;3.38;86.76;100499.20;106524;1256;61305;-80
2023/11/20 08:52:24;;;;;;;;;;;;;;;3.38;86.68;100493.64;106288;1256;124802;-80
2023/11/20 08:54:51;;;;;;;;;;;;;;;3.40;86.83;100490.95;106611;1259;66615;-80
2023/11/20 08:57:18;;;;;;;;;;;;;;;3.41;86.73;100492.77;106369;1256;124676;-80
2023/11/20 08:59:45;;;;;;;;;;;;;;;3.44;86.72;100490.65;106628;1259;61215;-90
2023/11/20 09:02:12;;;;;;;;;;;;;;;3.47;86.78;100490.96;106714;1256;61144;-88
2023/11/20 09:04:39;;;;;;;;;;;;;;;3.51;86.73;100494.77;106655;1256;124230;-88
2023/11/20 09:07:06;;;;;;;;;;;;;;;3.52;86.66;100497.45;106750;1256;66261;-80
2023/11/20 09:09:35;;;;;;;;;;;;;;;3.53;86.68;100499.40;106477;1257;124493;-80
2023/11/20 09:12:02;;;;;;;;;;;;;;;3.55;86.62;100498.11;106865;1256;59249;-79
2023/11/20 09:14:29;;;;;;;;;;;;;;;3.56;86.57;100498.84;106412;1256;124762;-79
2023/11/20 09:16:56;;;;;;;;;;;;;;;3.55;86.43;100499.34;106561;1256;73860;-80
2023/11/20 09:19:23;;;;;;;;;;;;;;;3.54;86.41;100497.18;106686;1255;64160;-80
2023/11/20 09:21:50;;;;;;;;;;;;;;;3.55;86.63;100493.77;106375;1257;190059;-80
2023/11/20 09:24:16;;;;;;;;;;;;;;;3.57;86.57;100494.52;106516;1256;61200;-80
2023/11/20 09:26:44;;;;;;;;;;;;;;;3.57;86.41;100489.00;106518;1255;124824;-80
2023/11/20 09:29:10;;;;;;;;;;;;;;;3.58;86.37;100483.85;106602;1257;73776;-80
2023/11/20 09:31:37;;;;;;;;;;;;;;;3.59;86.48;100485.30;106551;1256;66323;-81
2023/11/20 09:34:04;;;;;;;;;;;;;;;3.59;86.49;100485.97;106298;1256;124738;-80
2023/11/20 09:36:31;;;;;;;;;;;;;;;3.62;86.58;100487.49;106404;1258;61353;-80
2023/11/20 09:38:57;;;;;;;;;;;;;;;3.62;86.47;100488.92;106516;1256;124823;-80
2023/11/20 09:41:25;;;;;;;;;;;;;;;3.62;86.29;100482.65;106543;1256;73503;-79
2023/11/20 09:43:52;;;;;;;;;;;;;;;3.61;86.30;100483.29;106637;1259;66254;-79
2023/11/20 09:46:19;;;;;;;;;;;;;;;3.58;86.18;100481.97;106458;1257;124760;-80
2023/11/20 09:48:46;;;;;;;;;;;;;;;3.59;86.21;100482.31;106486;1256;61279;-80
2023/11/20 09:51:13;;;;;;;;;;;;;;;3.61;86.41;100482.45;106544;1256;124823;-79
2023/11/20 09:53:40;;;;;;;;;;;;;;;3.63;86.33;100484.96;106804;1256;74744;-89
2023/11/20 09:56:07;;;;;;;;;;;;;;;3.62;86.25;100487.20;106864;1256;66569;-89
2023/11/20 09:58:34;;;;;;;;;;;;;;;3.63;86.19;100482.69;106593;1256;124652;-89
2023/11/20 10:01:03;;;;;;;;;;;;;;;3.63;86.19;100481.85;106824;1256;61183;-89
2023/11/20 10:03:29;;;;;;;;;;;;;;;3.64;86.20;100482.98;106718;1255;124645;-89
2023/11/20 10:05:59;;;;;;;;;;;;;;;3.68;86.36;100479.67;106837;1259;73081;-89
2023/11/20 10:08:26;;;;;;;;;;;;;;;3.69;86.15;100478.52;106545;1256;124755;-88
2023/11/20 10:10:53;;;;;;;;;;;;;;;3.68;86.00;100478.64;106695;1256;72805;-89
2023/11/20 10:13:20;;;;;;;;;;;;;;;3.72;86.02;100477.73;106816;1255;61830;-89
2023/11/20 10:15:46;;;;;;;;;;;;;;;3.73;85.97;100476.09;106667;1257;124623;-80
2023/11/20 10:18:13;;;;;;;;;;;;;;;3.74;85.94;100474.56;106539;1256;73967;-80
2023/11/20 10:20:45;;;;;;;;;;;;;;;3.75;85.82;100475.64;106340;1258;125118;-80
2023/11/20 10:23:13;;;;;;;;;;;;;;;3.75;85.79;100477.52;106443;1256;71086;-79
2023/11/20 10:25:44;;;;;;;;;;;;;;;3.75;85.77;100475.81;106618;1256;61289;-80
2023/11/20 10:28:13;;;;;;;;;;;;;;;3.80;85.90;100478.48;106352;1256;124926;-80
2023/11/20 10:30:43;;;;;;;;;;;;;;;3.83;85.75;100480.17;106533;1259;73851;-80
2023/11/20 10:33:19;;;;;;;;;;;;;;;3.83;85.73;100477.24;106414;1256;126075;-80
2023/11/20 10:35:47;;;;;;;;;;;;;;;3.88;85.70;100479.20;106626;1257;71126;-78
2023/11/20 10:38:13;;;;;;;;;;;;;;;3.91;85.60;100479.36;106543;1256;61044;-80
2023/11/20 10:40:50;;;;;;;;;;;;;;;3.92;85.41;100479.05;106327;1255;125369;-80
2023/11/20 10:43:17;;;;;;;;;;;;;;;3.96;85.54;100481.31;106458;1256;74752;-80
2023/11/20 10:45:44;;;;;;;;;;;;;;;3.99;85.42;100484.23;106388;1259;124540;-80
2023/11/20 10:48:11;;;;;;;;;;;;;;;3.98;85.46;100480.02;106527;1258;71410;-81
2023/11/20 10:50:38;;;;;;;;;;;;;;;4.05;85.50;100483.13;106487;1256;124987;-80
2023/11/20 10:53:08;;;;;;;;;;;;;;;4.05;85.33;100480.01;106626;1255;59949;-80
2023/11/20 10:55:39;;;;;;;;;;;;;;;4.01;85.06;100475.16;106651;1256;74881;-80
2023/11/20 10:58:06;;;;;;;;;;;;;;;4.02;85.05;100477.98;106470;1256;125200;-80
2023/11/20 11:00:34;;;;;;;;;;;;;;;4.06;85.02;100476.79;106481;1255;72103;-80
2023/11/20 11:03:01;;;;;;;;;;;;;;;4.10;85.15;100468.95;106425;1256;124828;-79
2023/11/20 11:05:28;;;;;;;;;;;;;;;4.10;85.07;100468.61;106530;1259;61276;-80
2023/11/20 11:07:56;;;;;;;;;;;;;;;4.11;84.89;100468.13;106498;1256;74672;-79
2023/11/20 11:10:23;;;;;;;;;;;;;;;4.11;84.89;100466.23;106396;1259;124993;-80
2023/11/20 11:12:49;;;;;;;;;;;;;;;4.11;84.91;100465.52;106668;1258;71417;-79
2023/11/20 11:15:16;;;;;;;;;;;;;;;4.13;84.84;100467.49;106499;1256;124995;-80
2023/11/20 11:18:05;;;;;;;;;;;;;;;4.12;84.76;100470.79;106598;1259;61263;-80
2023/11/20 11:20:41;;;;;;;;;;;;;;;4.15;84.88;100467.60;106418;1257;126764;-80
2023/11/20 11:23:10;;;;;;;;;;;;;;;4.17;84.81;100470.33;106703;1258;66357;-80
2023/11/20 11:25:44;;;;;;;;;;;;;;;4.18;84.73;100473.14;106635;1255;72814;-80
2023/11/20 11:28:12;;;;;;;;;;;;;;;4.21;84.69;100467.04;107140;1256;124625;-80
2023/11/20 11:30:39;;;;;;;;;;;;;;;4.21;84.58;100463.55;107004;1256;61404;-80
2023/11/20 11:33:18;;;;;;;;;;;;;;;4.19;84.43;100456.16;106474;1257;124996;-80
2023/11/20 11:35:52;;;;;;;;;;;;;;;4.17;84.32;100460.09;106609;1259;65622;-80
2023/11/20 11:38:22;;;;;;;;;;;;;;;4.10;84.14;100458.55;106689;1257;71413;-80
2023/11/20 11:41:18;;;;;;;;;;;;;;;4.05;84.28;100454.84;106703;1259;61385;-80
2023/11/20 11:43:54;;;;;;;;;;;;;;;4.06;84.43;100461.48;106309;1261;61369;-80
2023/11/20 11:46:20;;;;;;;;;;;;;;;4.03;84.23;100453.71;106164;1261;125401;-79
2023/11/20 11:48:47;;;;;;;;;;;;;;;3.96;84.27;100456.34;106114;1261;64160;-80
2023/11/20 11:51:18;;;;;;;;;;;;;;;3.93;84.32;100459.52;106102;1262;124008;-80
2023/11/20 11:54:03;;;;;;;;;;;;;;;3.88;84.17;100463.75;106052;1261;61244;-79
2023/11/20 11:56:30;;;;;;;;;;;;;;;3.79;84.34;100463.17;106128;1261;124340;-80
2023/11/20 11:58:56;;;;;;;;;;;;;;;3.77;84.35;100466.87;106268;1265;74685;-80
2023/11/20 12:01:23;;;;;;;;;;;;;;;3.78;84.66;100468.65;106367;1261;66380;-90
2023/11/20 12:03:51;;;;;;;;;;;;;;;3.75;84.39;100471.13;106289;1261;125535;-89
2023/11/20 12:06:18;;;;;;;;;;;;;;;3.68;84.22;100469.77;106363;1260;59325;-90
2023/11/20 12:08:48;;;;;;;;;;;;;;;3.62;84.45;100472.95;106292;1260;124713;-89
2023/11/20 12:11:52;;;;;;;;;;;;;;;3.58;84.46;100472.05;106269;1261;74735;-89
2023/11/20 12:14:20;;;;;;;;;;;;;;;3.57;84.48;100469.07;105728;1269;65069;-89
2023/11/20 12:16:46;;;;;;;;;;;;;;;3.55;84.62;100467.72;105728;1269;124312;-88
2023/11/20 12:19:13;;;;;;;;;;;;;;;3.54;84.46;100470.98;105685;1270;61377;-89
2023/11/20 12:21:43;;;;;;;;;;;;;;;3.50;84.60;100466.13;105903;1264;124614;-88
2023/11/20 12:24:09;;;;;;;;;;;;;;;3.50;84.70;100469.06;106088;1265;74749;-90
2023/11/20 12:26:36;;;;;;;;;;;;;;;3.50;84.71;100468.72;105987;1264;124629;-90
2023/11/20 12:29:03;;;;;;;;;;;;;;;3.49;84.70;100472.46;105968;1264;72508;-89
2023/11/20 12:31:29;;;;;;;;;;;;;;;3.46;84.66;100469.92;106269;1267;61353;-89
2023/11/20 12:33:56;;;;;;;;;;;;;;;3.43;84.65;100469.06;106325;1264;124439;-89